<?xml version="1.0" encoding="UTF-8" standalone="no" ?>
<gpx xmlns="http://www.topografix.com/GPX/1/1" xmlns:xsi="http://www.w3.org/2001/XMLSchema-instance" xsi:schemaLocation="http://www.topografix.com/GPX/1/1 http://www.topografix.com/GPX/1/1/gpx.xsd" version="1.1" creator="VisuGPX - https://www.visugpx.com">
  <metadata>
    <name>Col de la Loze</name>
    <desc><![CDATA[Une autre alternative pour le col de la Loze]]></desc>
  </metadata>
  <trk>
    <name><![CDATA[lmoze]]></name>
    <trkseg>
      <trkpt lat="45.40766" lon="6.57894">
        <ele>1767.84239</ele>
        <time>2010-08-08T12:41:32Z</time>
      </trkpt>
      <trkpt lat="45.40751" lon="6.57892">
        <ele>1764.149642</ele>
        <time>2010-08-08T12:41:52Z</time>
      </trkpt>
      <trkpt lat="45.40754" lon="6.57903">
        <ele>1762.715511</ele>
        <time>2010-08-08T12:42:12Z</time>
      </trkpt>
      <trkpt lat="45.40759" lon="6.57933">
        <ele>1775.298466</ele>
        <time>2010-08-08T12:42:32Z</time>
      </trkpt>
      <trkpt lat="45.40756" lon="6.57969">
        <ele>1776.838756</ele>
        <time>2010-08-08T12:42:52Z</time>
      </trkpt>
      <trkpt lat="45.40733" lon="6.57996">
        <ele>1796.227104</ele>
        <time>2010-08-08T12:43:12Z</time>
      </trkpt>
      <trkpt lat="45.40713" lon="6.58022">
        <ele>1797.776871</ele>
        <time>2010-08-08T12:43:32Z</time>
      </trkpt>
      <trkpt lat="45.40697" lon="6.58052">
        <ele>1791.089065</ele>
        <time>2010-08-08T12:43:52Z</time>
      </trkpt>
      <trkpt lat="45.40678" lon="6.58081">
        <ele>1785.766943</ele>
        <time>2010-08-08T12:44:12Z</time>
      </trkpt>
      <trkpt lat="45.40665" lon="6.58114">
        <ele>1770.114915</ele>
        <time>2010-08-08T12:44:32Z</time>
      </trkpt>
      <trkpt lat="45.40645" lon="6.58142">
        <ele>1765.410067</ele>
        <time>2010-08-08T12:44:52Z</time>
      </trkpt>
      <trkpt lat="45.40639" lon="6.58182">
        <ele>1762.934578</ele>
        <time>2010-08-08T12:45:12Z</time>
      </trkpt>
      <trkpt lat="45.40637" lon="6.5822">
        <ele>1774.584058</ele>
        <time>2010-08-08T12:45:32Z</time>
      </trkpt>
      <trkpt lat="45.40632" lon="6.58262">
        <ele>1787.87002</ele>
        <time>2010-08-08T12:45:52Z</time>
      </trkpt>
      <trkpt lat="45.40636" lon="6.58279">
        <ele>1789.672389</ele>
        <time>2010-08-08T12:46:12Z</time>
      </trkpt>
      <trkpt lat="45.4063" lon="6.58284">
        <ele>1794.244828</ele>
        <time>2010-08-08T12:46:32Z</time>
      </trkpt>
      <trkpt lat="45.40616" lon="6.5829">
        <ele>1799.507278</ele>
        <time>2010-08-08T12:46:52Z</time>
      </trkpt>
      <trkpt lat="45.40587" lon="6.58322">
        <ele>1792.203408</ele>
        <time>2010-08-08T12:47:12Z</time>
      </trkpt>
      <trkpt lat="45.40561" lon="6.58353">
        <ele>1819.631322</ele>
        <time>2010-08-08T12:47:32Z</time>
      </trkpt>
      <trkpt lat="45.40538" lon="6.58347">
        <ele>1831.892768</ele>
        <time>2010-08-08T12:47:52Z</time>
      </trkpt>
      <trkpt lat="45.40529" lon="6.58346">
        <ele>1829.668686</ele>
        <time>2010-08-08T12:48:12Z</time>
      </trkpt>
      <trkpt lat="45.40511" lon="6.58358">
        <ele>1824.013645</ele>
        <time>2010-08-08T12:48:32Z</time>
      </trkpt>
      <trkpt lat="45.40488" lon="6.58393">
        <ele>1832.530227</ele>
        <time>2010-08-08T12:48:52Z</time>
      </trkpt>
      <trkpt lat="45.40485" lon="6.58423">
        <ele>1837.978849</ele>
        <time>2010-08-08T12:49:12Z</time>
      </trkpt>
      <trkpt lat="45.40469" lon="6.58438">
        <ele>1850.206839</ele>
        <time>2010-08-08T12:49:32Z</time>
      </trkpt>
      <trkpt lat="45.40453" lon="6.58452">
        <ele>1843.252312</ele>
        <time>2010-08-08T12:49:52Z</time>
      </trkpt>
      <trkpt lat="45.40424" lon="6.58447">
        <ele>1839.224027</ele>
        <time>2010-08-08T12:50:12Z</time>
      </trkpt>
      <trkpt lat="45.40399" lon="6.5845">
        <ele>1851.403408</ele>
        <time>2010-08-08T12:50:32Z</time>
      </trkpt>
      <trkpt lat="45.40375" lon="6.58461">
        <ele>1856.254855</ele>
        <time>2010-08-08T12:50:52Z</time>
      </trkpt>
      <trkpt lat="45.40352" lon="6.58469">
        <ele>1856.636245</ele>
        <time>2010-08-08T12:51:12Z</time>
      </trkpt>
      <trkpt lat="45.40327" lon="6.58481">
        <ele>1858.734761</ele>
        <time>2010-08-08T12:51:32Z</time>
      </trkpt>
      <trkpt lat="45.40316" lon="6.58512">
        <ele>1860.645564</ele>
        <time>2010-08-08T12:51:52Z</time>
      </trkpt>
      <trkpt lat="45.40308" lon="6.58534">
        <ele>1858.49084</ele>
        <time>2010-08-08T12:52:12Z</time>
      </trkpt>
      <trkpt lat="45.40306" lon="6.58566">
        <ele>1849.85908</ele>
        <time>2010-08-08T12:52:32Z</time>
      </trkpt>
      <trkpt lat="45.40306" lon="6.58595">
        <ele>1853.13531</ele>
        <time>2010-08-08T12:52:52Z</time>
      </trkpt>
      <trkpt lat="45.40318" lon="6.58612">
        <ele>1859.268724</ele>
        <time>2010-08-08T12:53:12Z</time>
      </trkpt>
      <trkpt lat="45.40317" lon="6.58644">
        <ele>1865.510654</ele>
        <time>2010-08-08T12:53:32Z</time>
      </trkpt>
      <trkpt lat="45.40297" lon="6.58673">
        <ele>1882.9054</ele>
        <time>2010-08-08T12:53:52Z</time>
      </trkpt>
      <trkpt lat="45.40287" lon="6.5871">
        <ele>1882.415032</ele>
        <time>2010-08-08T12:54:12Z</time>
      </trkpt>
      <trkpt lat="45.40287" lon="6.58753">
        <ele>1868.107114</ele>
        <time>2010-08-08T12:54:32Z</time>
      </trkpt>
      <trkpt lat="45.40295" lon="6.58795">
        <ele>1845.268502</ele>
        <time>2010-08-08T12:54:52Z</time>
      </trkpt>
      <trkpt lat="45.40302" lon="6.58831">
        <ele>1849.035659</ele>
        <time>2010-08-08T12:55:12Z</time>
      </trkpt>
      <trkpt lat="45.40316" lon="6.58817">
        <ele>1868.741053</ele>
        <time>2010-08-08T12:55:32Z</time>
      </trkpt>
      <trkpt lat="45.40329" lon="6.58786">
        <ele>1879.624963</ele>
        <time>2010-08-08T12:55:52Z</time>
      </trkpt>
      <trkpt lat="45.40337" lon="6.58765">
        <ele>1904.573504</ele>
        <time>2010-08-08T12:56:12Z</time>
      </trkpt>
      <trkpt lat="45.40352" lon="6.58772">
        <ele>1904.35876</ele>
        <time>2010-08-08T12:56:32Z</time>
      </trkpt>
      <trkpt lat="45.40373" lon="6.5879">
        <ele>1910.514232</ele>
        <time>2010-08-08T12:56:52Z</time>
      </trkpt>
      <trkpt lat="45.40389" lon="6.58801">
        <ele>1909.160926</ele>
        <time>2010-08-08T12:57:12Z</time>
      </trkpt>
      <trkpt lat="45.40413" lon="6.58814">
        <ele>1897.316482</ele>
        <time>2010-08-08T12:57:32Z</time>
      </trkpt>
      <trkpt lat="45.40429" lon="6.58818">
        <ele>1901.184113</ele>
        <time>2010-08-08T12:57:52Z</time>
      </trkpt>
      <trkpt lat="45.40437" lon="6.58813">
        <ele>1906.587766</ele>
        <time>2010-08-08T12:58:12Z</time>
      </trkpt>
      <trkpt lat="45.40448" lon="6.58815">
        <ele>1913.847597</ele>
        <time>2010-08-08T12:58:32Z</time>
      </trkpt>
      <trkpt lat="45.40466" lon="6.58819">
        <ele>1930.51101</ele>
        <time>2010-08-08T12:58:52Z</time>
      </trkpt>
      <trkpt lat="45.40507" lon="6.58845">
        <ele>1926.644501</ele>
        <time>2010-08-08T12:59:12Z</time>
      </trkpt>
      <trkpt lat="45.40513" lon="6.58852">
        <ele>1926.423008</ele>
        <time>2010-08-08T12:59:32Z</time>
      </trkpt>
      <trkpt lat="45.40524" lon="6.58863">
        <ele>1934.246913</ele>
        <time>2010-08-08T12:59:52Z</time>
      </trkpt>
      <trkpt lat="45.40545" lon="6.58891">
        <ele>1944.659462</ele>
        <time>2010-08-08T13:00:12Z</time>
      </trkpt>
      <trkpt lat="45.40577" lon="6.58923">
        <ele>1960.291238</ele>
        <time>2010-08-08T13:00:32Z</time>
      </trkpt>
      <trkpt lat="45.4062" lon="6.58964">
        <ele>1946.065118</ele>
        <time>2010-08-08T13:00:52Z</time>
      </trkpt>
      <trkpt lat="45.40686" lon="6.59014">
        <ele>1912.626583</ele>
        <time>2010-08-08T13:01:12Z</time>
      </trkpt>
      <trkpt lat="45.40713" lon="6.59025">
        <ele>1918.439714</ele>
        <time>2010-08-08T13:01:32Z</time>
      </trkpt>
      <trkpt lat="45.40735" lon="6.59022">
        <ele>1921.898357</ele>
        <time>2010-08-08T13:01:52Z</time>
      </trkpt>
      <trkpt lat="45.40765" lon="6.59004">
        <ele>1912.314161</ele>
        <time>2010-08-08T13:02:12Z</time>
      </trkpt>
      <trkpt lat="45.40789" lon="6.58984">
        <ele>1906.899953</ele>
        <time>2010-08-08T13:02:32Z</time>
      </trkpt>
      <trkpt lat="45.40811" lon="6.58961">
        <ele>1906.236084</ele>
        <time>2010-08-08T13:02:52Z</time>
      </trkpt>
      <trkpt lat="45.40824" lon="6.58936">
        <ele>1925.283468</ele>
        <time>2010-08-08T13:03:12Z</time>
      </trkpt>
      <trkpt lat="45.40845" lon="6.58926">
        <ele>1936.767617</ele>
        <time>2010-08-08T13:03:32Z</time>
      </trkpt>
      <trkpt lat="45.40859" lon="6.58938">
        <ele>1941.897942</ele>
        <time>2010-08-08T13:03:52Z</time>
      </trkpt>
      <trkpt lat="45.40882" lon="6.58945">
        <ele>1943.11683</ele>
        <time>2010-08-08T13:04:12Z</time>
      </trkpt>
      <trkpt lat="45.40914" lon="6.58924">
        <ele>1951.887096</ele>
        <time>2010-08-08T13:04:32Z</time>
      </trkpt>
      <trkpt lat="45.40932" lon="6.58924">
        <ele>1951.932319</ele>
        <time>2010-08-08T13:04:52Z</time>
      </trkpt>
      <trkpt lat="45.4095" lon="6.58932">
        <ele>1947.534945</ele>
        <time>2010-08-08T13:05:12Z</time>
      </trkpt>
      <trkpt lat="45.40976" lon="6.58921">
        <ele>1955.481564</ele>
        <time>2010-08-08T13:05:32Z</time>
      </trkpt>
      <trkpt lat="45.41007" lon="6.58928">
        <ele>1958.19906</ele>
        <time>2010-08-08T13:05:52Z</time>
      </trkpt>
      <trkpt lat="45.41017" lon="6.58928">
        <ele>1957.524436</ele>
        <time>2010-08-08T13:06:12Z</time>
      </trkpt>
      <trkpt lat="45.4105" lon="6.58928">
        <ele>1962.607446</ele>
        <time>2010-08-08T13:06:32Z</time>
      </trkpt>
      <trkpt lat="45.41066" lon="6.5894">
        <ele>1962.034412</ele>
        <time>2010-08-08T13:06:52Z</time>
      </trkpt>
      <trkpt lat="45.4107" lon="6.58939">
        <ele>1959.179098</ele>
        <time>2010-08-08T13:07:12Z</time>
      </trkpt>
      <trkpt lat="45.41086" lon="6.58943">
        <ele>1953.101444</ele>
        <time>2010-08-08T13:07:32Z</time>
      </trkpt>
      <trkpt lat="45.4112" lon="6.58934">
        <ele>1967.568334</ele>
        <time>2010-08-08T13:07:52Z</time>
      </trkpt>
      <trkpt lat="45.41172" lon="6.58917">
        <ele>1961.769277</ele>
        <time>2010-08-08T13:08:12Z</time>
      </trkpt>
      <trkpt lat="45.41177" lon="6.58917">
        <ele>1962.460094</ele>
        <time>2010-08-08T13:08:32Z</time>
      </trkpt>
      <trkpt lat="45.41231" lon="6.58902">
        <ele>1963.187889</ele>
        <time>2010-08-08T13:08:52Z</time>
      </trkpt>
      <trkpt lat="45.41248" lon="6.58927">
        <ele>1952.791052</ele>
        <time>2010-08-08T13:09:12Z</time>
      </trkpt>
      <trkpt lat="45.41236" lon="6.58947">
        <ele>1950.430158</ele>
        <time>2010-08-08T13:09:32Z</time>
      </trkpt>
      <trkpt lat="45.41229" lon="6.58968">
        <ele>1939.671351</ele>
        <time>2010-08-08T13:09:52Z</time>
      </trkpt>
      <trkpt lat="45.41219" lon="6.58993">
        <ele>1930.61476</ele>
        <time>2010-08-08T13:10:12Z</time>
      </trkpt>
      <trkpt lat="45.41221" lon="6.5901">
        <ele>1950.17685</ele>
        <time>2010-08-08T13:10:32Z</time>
      </trkpt>
      <trkpt lat="45.41221" lon="6.59015">
        <ele>1968.206312</ele>
        <time>2010-08-08T13:10:52Z</time>
      </trkpt>
      <trkpt lat="45.41223" lon="6.59025">
        <ele>1973.821263</ele>
        <time>2010-08-08T13:11:12Z</time>
      </trkpt>
      <trkpt lat="45.41227" lon="6.59031">
        <ele>1981.316234</ele>
        <time>2010-08-08T13:11:32Z</time>
      </trkpt>
      <trkpt lat="45.41231" lon="6.5904">
        <ele>1985.455912</ele>
        <time>2010-08-08T13:11:52Z</time>
      </trkpt>
      <trkpt lat="45.41234" lon="6.59044">
        <ele>1985.742069</ele>
        <time>2010-08-08T13:12:12Z</time>
      </trkpt>
      <trkpt lat="45.41246" lon="6.59056">
        <ele>1981.594023</ele>
        <time>2010-08-08T13:12:32Z</time>
      </trkpt>
      <trkpt lat="45.41247" lon="6.59062">
        <ele>1992.59064</ele>
        <time>2010-08-08T13:12:55Z</time>
      </trkpt>
      <trkpt lat="45.41309" lon="6.59117">
        <ele>1984.339657</ele>
        <time>2010-08-08T13:13:15Z</time>
      </trkpt>
      <trkpt lat="45.41329" lon="6.59143">
        <ele>1999.52093</ele>
        <time>2010-08-08T13:13:35Z</time>
      </trkpt>
      <trkpt lat="45.41365" lon="6.59182">
        <ele>2019.914979</ele>
        <time>2010-08-08T13:13:55Z</time>
      </trkpt>
      <trkpt lat="45.41384" lon="6.59202">
        <ele>2009.923962</ele>
        <time>2010-08-08T13:14:15Z</time>
      </trkpt>
      <trkpt lat="45.41387" lon="6.59202">
        <ele>2006.356678</ele>
        <time>2010-08-08T13:14:35Z</time>
      </trkpt>
      <trkpt lat="45.41385" lon="6.59203">
        <ele>2002.178946</ele>
        <time>2010-08-08T13:14:56Z</time>
      </trkpt>
      <trkpt lat="45.41379" lon="6.59206">
        <ele>2002.361284</ele>
        <time>2010-08-08T13:15:18Z</time>
      </trkpt>
      <trkpt lat="45.41369" lon="6.59214">
        <ele>2003.518763</ele>
        <time>2010-08-08T13:15:38Z</time>
      </trkpt>
      <trkpt lat="45.41364" lon="6.59213">
        <ele>2014.816224</ele>
        <time>2010-08-08T13:15:58Z</time>
      </trkpt>
      <trkpt lat="45.41355" lon="6.59217">
        <ele>2015.034627</ele>
        <time>2010-08-08T13:16:18Z</time>
      </trkpt>
      <trkpt lat="45.41347" lon="6.59221">
        <ele>2016.67743</ele>
        <time>2010-08-08T13:16:38Z</time>
      </trkpt>
      <trkpt lat="45.41341" lon="6.59225">
        <ele>2015.435432</ele>
        <time>2010-08-08T13:17:20Z</time>
      </trkpt>
      <trkpt lat="45.41323" lon="6.59243">
        <ele>2013.712855</ele>
        <time>2010-08-08T13:17:40Z</time>
      </trkpt>
      <trkpt lat="45.41315" lon="6.59276">
        <ele>2020.755494</ele>
        <time>2010-08-08T13:18:00Z</time>
      </trkpt>
      <trkpt lat="45.41305" lon="6.59323">
        <ele>2033.595976</ele>
        <time>2010-08-08T13:18:20Z</time>
      </trkpt>
      <trkpt lat="45.41298" lon="6.59336">
        <ele>2036.530143</ele>
        <time>2010-08-08T13:18:40Z</time>
      </trkpt>
      <trkpt lat="45.41289" lon="6.59351">
        <ele>2038.186343</ele>
        <time>2010-08-08T13:19:00Z</time>
      </trkpt>
      <trkpt lat="45.41287" lon="6.59357">
        <ele>2035.674868</ele>
        <time>2010-08-08T13:19:20Z</time>
      </trkpt>
      <trkpt lat="45.41288" lon="6.59364">
        <ele>2034.051628</ele>
        <time>2010-08-08T13:19:40Z</time>
      </trkpt>
      <trkpt lat="45.41284" lon="6.59373">
        <ele>2036.6931</ele>
        <time>2010-08-08T13:20:00Z</time>
      </trkpt>
      <trkpt lat="45.41277" lon="6.59394">
        <ele>2035.882423</ele>
        <time>2010-08-08T13:20:20Z</time>
      </trkpt>
      <trkpt lat="45.41275" lon="6.59404">
        <ele>2035.102954</ele>
        <time>2010-08-08T13:20:40Z</time>
      </trkpt>
      <trkpt lat="45.41263" lon="6.59424">
        <ele>2041.978045</ele>
        <time>2010-08-08T13:21:00Z</time>
      </trkpt>
      <trkpt lat="45.41236" lon="6.59463">
        <ele>2069.192193</ele>
        <time>2010-08-08T13:21:20Z</time>
      </trkpt>
      <trkpt lat="45.41233" lon="6.5947">
        <ele>2071.753158</ele>
        <time>2010-08-08T13:21:40Z</time>
      </trkpt>
      <trkpt lat="45.41224" lon="6.59489">
        <ele>2072.954189</ele>
        <time>2010-08-08T13:22:00Z</time>
      </trkpt>
      <trkpt lat="45.41221" lon="6.59493">
        <ele>2071.044713</ele>
        <time>2010-08-08T13:22:28Z</time>
      </trkpt>
      <trkpt lat="45.41205" lon="6.59516">
        <ele>2056.11596</ele>
        <time>2010-08-08T13:22:48Z</time>
      </trkpt>
      <trkpt lat="45.41196" lon="6.59528">
        <ele>2066.068521</ele>
        <time>2010-08-08T13:23:08Z</time>
      </trkpt>
      <trkpt lat="45.41187" lon="6.59541">
        <ele>2078.223444</ele>
        <time>2010-08-08T13:23:28Z</time>
      </trkpt>
      <trkpt lat="45.41174" lon="6.59548">
        <ele>2104.884739</ele>
        <time>2010-08-08T13:23:48Z</time>
      </trkpt>
      <trkpt lat="45.4117" lon="6.59552">
        <ele>2108.679263</ele>
        <time>2010-08-08T13:24:08Z</time>
      </trkpt>
      <trkpt lat="45.41168" lon="6.59564">
        <ele>2106.571091</ele>
        <time>2010-08-08T13:24:28Z</time>
      </trkpt>
      <trkpt lat="45.41165" lon="6.59569">
        <ele>2105.454481</ele>
        <time>2010-08-08T13:25:33Z</time>
      </trkpt>
      <trkpt lat="45.41169" lon="6.59573">
        <ele>2105.043447</ele>
        <time>2010-08-08T13:25:53Z</time>
      </trkpt>
      <trkpt lat="45.41174" lon="6.59592">
        <ele>2103.427334</ele>
        <time>2010-08-08T13:26:13Z</time>
      </trkpt>
      <trkpt lat="45.41171" lon="6.59622">
        <ele>2110.985976</ele>
        <time>2010-08-08T13:26:33Z</time>
      </trkpt>
      <trkpt lat="45.41169" lon="6.5963">
        <ele>2125.711591</ele>
        <time>2010-08-08T13:26:53Z</time>
      </trkpt>
      <trkpt lat="45.41164" lon="6.59642">
        <ele>2129.990009</ele>
        <time>2010-08-08T13:27:13Z</time>
      </trkpt>
      <trkpt lat="45.41162" lon="6.5965">
        <ele>2129.746895</ele>
        <time>2010-08-08T13:27:33Z</time>
      </trkpt>
      <trkpt lat="45.41158" lon="6.59656">
        <ele>2129.408335</ele>
        <time>2010-08-08T13:27:55Z</time>
      </trkpt>
      <trkpt lat="45.41156" lon="6.5967">
        <ele>2128.158935</ele>
        <time>2010-08-08T13:28:15Z</time>
      </trkpt>
      <trkpt lat="45.41155" lon="6.59676">
        <ele>2128.562171</ele>
        <time>2010-08-08T13:29:53Z</time>
      </trkpt>
      <trkpt lat="45.41146" lon="6.59706">
        <ele>2167.298615</ele>
        <time>2010-08-08T13:30:13Z</time>
      </trkpt>
      <trkpt lat="45.41141" lon="6.59713">
        <ele>2167.738113</ele>
        <time>2010-08-08T13:30:33Z</time>
      </trkpt>
      <trkpt lat="45.41143" lon="6.59719">
        <ele>2166.049289</ele>
        <time>2010-08-08T13:31:37Z</time>
      </trkpt>
      <trkpt lat="45.41143" lon="6.59779">
        <ele>2176.220033</ele>
        <time>2010-08-08T13:31:57Z</time>
      </trkpt>
      <trkpt lat="45.41138" lon="6.59795">
        <ele>2176.526855</ele>
        <time>2010-08-08T13:32:17Z</time>
      </trkpt>
      <trkpt lat="45.4113" lon="6.59816">
        <ele>2187.059307</ele>
        <time>2010-08-08T13:32:37Z</time>
      </trkpt>
      <trkpt lat="45.41132" lon="6.59823">
        <ele>2188.189601</ele>
        <time>2010-08-08T13:33:08Z</time>
      </trkpt>
      <trkpt lat="45.41133" lon="6.59829">
        <ele>2188.607734</ele>
        <time>2010-08-08T13:33:47Z</time>
      </trkpt>
      <trkpt lat="45.4113" lon="6.59833">
        <ele>2193.129375</ele>
        <time>2010-08-08T13:34:07Z</time>
      </trkpt>
      <trkpt lat="45.41126" lon="6.59837">
        <ele>2194.736498</ele>
        <time>2010-08-08T13:34:31Z</time>
      </trkpt>
      <trkpt lat="45.41123" lon="6.59841">
        <ele>2197.151257</ele>
        <time>2010-08-08T13:34:56Z</time>
      </trkpt>
      <trkpt lat="45.4112" lon="6.59842">
        <ele>2200.006577</ele>
        <time>2010-08-08T13:35:16Z</time>
      </trkpt>
      <trkpt lat="45.41114" lon="6.59839">
        <ele>2204.792656</ele>
        <time>2010-08-08T13:35:36Z</time>
      </trkpt>
      <trkpt lat="45.41104" lon="6.59841">
        <ele>2204.835614</ele>
        <time>2010-08-08T13:35:56Z</time>
      </trkpt>
      <trkpt lat="45.41097" lon="6.59839">
        <ele>2206.090496</ele>
        <time>2010-08-08T13:36:16Z</time>
      </trkpt>
      <trkpt lat="45.41093" lon="6.59838">
        <ele>2206.743481</ele>
        <time>2010-08-08T13:37:03Z</time>
      </trkpt>
      <trkpt lat="45.41084" lon="6.59841">
        <ele>2209.003626</ele>
        <time>2010-08-08T13:37:23Z</time>
      </trkpt>
      <trkpt lat="45.41076" lon="6.59844">
        <ele>2214.163508</ele>
        <time>2010-08-08T13:37:43Z</time>
      </trkpt>
      <trkpt lat="45.41056" lon="6.5985">
        <ele>2213.016196</ele>
        <time>2010-08-08T13:38:03Z</time>
      </trkpt>
      <trkpt lat="45.41043" lon="6.59853">
        <ele>2215.297947</ele>
        <time>2010-08-08T13:38:23Z</time>
      </trkpt>
      <trkpt lat="45.4103" lon="6.59865">
        <ele>2223.79732</ele>
        <time>2010-08-08T13:38:43Z</time>
      </trkpt>
      <trkpt lat="45.41032" lon="6.5987">
        <ele>2226.256468</ele>
        <time>2010-08-08T13:39:27Z</time>
      </trkpt>
      <trkpt lat="45.41034" lon="6.59877">
        <ele>2225.992018</ele>
        <time>2010-08-08T13:39:47Z</time>
      </trkpt>
      <trkpt lat="45.41038" lon="6.59888">
        <ele>2230.991005</ele>
        <time>2010-08-08T13:40:07Z</time>
      </trkpt>
      <trkpt lat="45.4104" lon="6.5992">
        <ele>2240.812051</ele>
        <time>2010-08-08T13:40:27Z</time>
      </trkpt>
      <trkpt lat="45.41042" lon="6.59926">
        <ele>2241.245011</ele>
        <time>2010-08-08T13:41:23Z</time>
      </trkpt>
      <trkpt lat="45.41042" lon="6.59945">
        <ele>2248.108104</ele>
        <time>2010-08-08T13:41:43Z</time>
      </trkpt>
      <trkpt lat="45.41032" lon="6.59965">
        <ele>2284.856423</ele>
        <time>2010-08-08T13:42:03Z</time>
      </trkpt>
      <trkpt lat="45.41028" lon="6.59975">
        <ele>2283.350668</ele>
        <time>2010-08-08T13:42:23Z</time>
      </trkpt>
      <trkpt lat="45.41015" lon="6.59981">
        <ele>2287.915582</ele>
        <time>2010-08-08T13:42:43Z</time>
      </trkpt>
      <trkpt lat="45.4101" lon="6.5999">
        <ele>2282.085817</ele>
        <time>2010-08-08T13:43:03Z</time>
      </trkpt>
      <trkpt lat="45.41005" lon="6.59997">
        <ele>2284.632522</ele>
        <time>2010-08-08T13:43:23Z</time>
      </trkpt>
      <trkpt lat="45.41007" lon="6.60003">
        <ele>2283.575302</ele>
        <time>2010-08-08T13:44:02Z</time>
      </trkpt>
      <trkpt lat="45.41007" lon="6.60024">
        <ele>2290.599914</ele>
        <time>2010-08-08T13:44:22Z</time>
      </trkpt>
      <trkpt lat="45.41005" lon="6.60037">
        <ele>2306.346067</ele>
        <time>2010-08-08T13:44:42Z</time>
      </trkpt>
      <trkpt lat="45.40998" lon="6.60032">
        <ele>2308.137019</ele>
        <time>2010-08-08T13:45:02Z</time>
      </trkpt>
      <trkpt lat="45.40997" lon="6.6004">
        <ele>2303.68046</ele>
        <time>2010-08-08T13:45:22Z</time>
      </trkpt>
      <trkpt lat="45.40999" lon="6.60051">
        <ele>2302.248665</ele>
        <time>2010-08-08T13:45:42Z</time>
      </trkpt>
      <trkpt lat="45.40996" lon="6.60066">
        <ele>2307.416045</ele>
        <time>2010-08-08T13:46:02Z</time>
      </trkpt>
      <trkpt lat="45.40992" lon="6.60075">
        <ele>2310.138981</ele>
        <time>2010-08-08T13:46:22Z</time>
      </trkpt>
      <trkpt lat="45.40988" lon="6.60079">
        <ele>2313.236509</ele>
        <time>2010-08-08T13:46:42Z</time>
      </trkpt>
      <trkpt lat="45.40987" lon="6.60086">
        <ele>2311.518335</ele>
        <time>2010-08-08T13:47:12Z</time>
      </trkpt>
      <trkpt lat="45.4098" lon="6.60142">
        <ele>2317.924717</ele>
        <time>2010-08-08T13:47:32Z</time>
      </trkpt>
      <trkpt lat="45.40972" lon="6.60158">
        <ele>2329.544813</ele>
        <time>2010-08-08T13:47:52Z</time>
      </trkpt>
      <trkpt lat="45.40962" lon="6.60152">
        <ele>2331.92289</ele>
        <time>2010-08-08T13:48:12Z</time>
      </trkpt>
      <trkpt lat="45.40958" lon="6.60155">
        <ele>2332.12072</ele>
        <time>2010-08-08T13:48:39Z</time>
      </trkpt>
      <trkpt lat="45.40948" lon="6.60159">
        <ele>2330.218546</ele>
        <time>2010-08-08T13:48:59Z</time>
      </trkpt>
      <trkpt lat="45.40943" lon="6.60167">
        <ele>2339.893743</ele>
        <time>2010-08-08T13:49:19Z</time>
      </trkpt>
      <trkpt lat="45.40942" lon="6.60172">
        <ele>2336.685399</ele>
        <time>2010-08-08T13:49:43Z</time>
      </trkpt>
      <trkpt lat="45.40916" lon="6.60197">
        <ele>2347.415903</ele>
        <time>2010-08-08T13:50:03Z</time>
      </trkpt>
      <trkpt lat="45.40896" lon="6.60215">
        <ele>2349.198201</ele>
        <time>2010-08-08T13:50:23Z</time>
      </trkpt>
      <trkpt lat="45.40892" lon="6.60221">
        <ele>2351.664445</ele>
        <time>2010-08-08T13:50:43Z</time>
      </trkpt>
      <trkpt lat="45.40889" lon="6.60223">
        <ele>2357.434468</ele>
        <time>2010-08-08T13:51:03Z</time>
      </trkpt>
      <trkpt lat="45.40887" lon="6.60228">
        <ele>2355.620936</ele>
        <time>2010-08-08T13:54:03Z</time>
      </trkpt>
      <trkpt lat="45.40881" lon="6.6023">
        <ele>2354.313863</ele>
        <time>2010-08-08T13:58:46Z</time>
      </trkpt>
      <trkpt lat="45.40874" lon="6.6023">
        <ele>2355.01824</ele>
        <time>2010-08-08T13:59:06Z</time>
      </trkpt>
      <trkpt lat="45.40857" lon="6.60233">
        <ele>2357.256369</ele>
        <time>2010-08-08T13:59:26Z</time>
      </trkpt>
      <trkpt lat="45.40835" lon="6.60235">
        <ele>2361.557263</ele>
        <time>2010-08-08T13:59:46Z</time>
      </trkpt>
      <trkpt lat="45.40808" lon="6.60249">
        <ele>2367.318672</ele>
        <time>2010-08-08T14:00:06Z</time>
      </trkpt>
      <trkpt lat="45.4079" lon="6.60261">
        <ele>2360.872122</ele>
        <time>2010-08-08T14:00:26Z</time>
      </trkpt>
      <trkpt lat="45.40775" lon="6.60261">
        <ele>2365.797581</ele>
        <time>2010-08-08T14:00:46Z</time>
      </trkpt>
      <trkpt lat="45.40772" lon="6.60256">
        <ele>2360.50456</ele>
        <time>2010-08-08T14:01:06Z</time>
      </trkpt>
      <trkpt lat="45.40763" lon="6.60253">
        <ele>2360.24008</ele>
        <time>2010-08-08T14:01:26Z</time>
      </trkpt>
      <trkpt lat="45.40732" lon="6.60233">
        <ele>2363.132122</ele>
        <time>2010-08-08T14:01:46Z</time>
      </trkpt>
      <trkpt lat="45.40708" lon="6.60221">
        <ele>2357.96365</ele>
        <time>2010-08-08T14:02:06Z</time>
      </trkpt>
      <trkpt lat="45.40682" lon="6.60219">
        <ele>2359.159876</ele>
        <time>2010-08-08T14:02:26Z</time>
      </trkpt>
      <trkpt lat="45.40658" lon="6.60213">
        <ele>2354.409952</ele>
        <time>2010-08-08T14:02:46Z</time>
      </trkpt>
      <trkpt lat="45.40635" lon="6.60201">
        <ele>2352.868413</ele>
        <time>2010-08-08T14:03:06Z</time>
      </trkpt>
      <trkpt lat="45.40613" lon="6.60187">
        <ele>2343.339804</ele>
        <time>2010-08-08T14:03:26Z</time>
      </trkpt>
      <trkpt lat="45.40589" lon="6.60177">
        <ele>2337.635969</ele>
        <time>2010-08-08T14:03:46Z</time>
      </trkpt>
      <trkpt lat="45.40568" lon="6.60163">
        <ele>2335.250588</ele>
        <time>2010-08-08T14:04:06Z</time>
      </trkpt>
      <trkpt lat="45.40547" lon="6.60155">
        <ele>2326.837983</ele>
        <time>2010-08-08T14:04:26Z</time>
      </trkpt>
      <trkpt lat="45.40527" lon="6.60143">
        <ele>2321.72913</ele>
        <time>2010-08-08T14:04:46Z</time>
      </trkpt>
      <trkpt lat="45.40507" lon="6.60127">
        <ele>2315.666143</ele>
        <time>2010-08-08T14:05:06Z</time>
      </trkpt>
      <trkpt lat="45.40485" lon="6.60115">
        <ele>2312.649787</ele>
        <time>2010-08-08T14:05:26Z</time>
      </trkpt>
      <trkpt lat="45.40472" lon="6.60107">
        <ele>2307.856561</ele>
        <time>2010-08-08T14:05:46Z</time>
      </trkpt>
      <trkpt lat="45.40472" lon="6.60103">
        <ele>2313.252527</ele>
        <time>2010-08-08T14:06:06Z</time>
      </trkpt>
      <trkpt lat="45.40451" lon="6.60094">
        <ele>2297.014608</ele>
        <time>2010-08-08T14:06:26Z</time>
      </trkpt>
      <trkpt lat="45.40423" lon="6.60084">
        <ele>2291.26773</ele>
        <time>2010-08-08T14:06:46Z</time>
      </trkpt>
      <trkpt lat="45.40421" lon="6.60058">
        <ele>2291.731318</ele>
        <time>2010-08-08T14:07:06Z</time>
      </trkpt>
      <trkpt lat="45.40435" lon="6.60028">
        <ele>2282.812459</ele>
        <time>2010-08-08T14:07:26Z</time>
      </trkpt>
      <trkpt lat="45.40422" lon="6.6">
        <ele>2276.713617</ele>
        <time>2010-08-08T14:07:46Z</time>
      </trkpt>
      <trkpt lat="45.404" lon="6.59979">
        <ele>2268.889698</ele>
        <time>2010-08-08T14:08:06Z</time>
      </trkpt>
      <trkpt lat="45.40404" lon="6.59963">
        <ele>2261.453679</ele>
        <time>2010-08-08T14:08:26Z</time>
      </trkpt>
      <trkpt lat="45.40389" lon="6.5995">
        <ele>2257.732912</ele>
        <time>2010-08-08T14:08:46Z</time>
      </trkpt>
      <trkpt lat="45.40412" lon="6.59933">
        <ele>2246.823799</ele>
        <time>2010-08-08T14:09:06Z</time>
      </trkpt>
      <trkpt lat="45.40434" lon="6.59915">
        <ele>2240.840838</ele>
        <time>2010-08-08T14:09:26Z</time>
      </trkpt>
      <trkpt lat="45.40453" lon="6.59903">
        <ele>2231.620331</ele>
        <time>2010-08-08T14:09:46Z</time>
      </trkpt>
      <trkpt lat="45.40466" lon="6.59887">
        <ele>2227.106001</ele>
        <time>2010-08-08T14:10:06Z</time>
      </trkpt>
      <trkpt lat="45.40461" lon="6.59887">
        <ele>2226.350001</ele>
        <time>2010-08-08T14:10:29Z</time>
      </trkpt>
      <trkpt lat="45.40434" lon="6.59872">
        <ele>2216.051964</ele>
        <time>2010-08-08T14:10:49Z</time>
      </trkpt>
      <trkpt lat="45.40448" lon="6.59854">
        <ele>2212.881116</ele>
        <time>2010-08-08T14:11:09Z</time>
      </trkpt>
      <trkpt lat="45.40444" lon="6.59842">
        <ele>2204.270712</ele>
        <time>2010-08-08T14:11:29Z</time>
      </trkpt>
      <trkpt lat="45.4047" lon="6.59856">
        <ele>2193.947303</ele>
        <time>2010-08-08T14:11:49Z</time>
      </trkpt>
      <trkpt lat="45.40501" lon="6.5985">
        <ele>2194.350775</ele>
        <time>2010-08-08T14:12:09Z</time>
      </trkpt>
      <trkpt lat="45.40499" lon="6.59836">
        <ele>2186.386396</ele>
        <time>2010-08-08T14:12:29Z</time>
      </trkpt>
      <trkpt lat="45.40507" lon="6.59823">
        <ele>2183.465239</ele>
        <time>2010-08-08T14:12:49Z</time>
      </trkpt>
      <trkpt lat="45.40514" lon="6.59806">
        <ele>2175.280747</ele>
        <time>2010-08-08T14:13:09Z</time>
      </trkpt>
      <trkpt lat="45.40491" lon="6.59794">
        <ele>2171.618685</ele>
        <time>2010-08-08T14:13:29Z</time>
      </trkpt>
      <trkpt lat="45.4051" lon="6.59783">
        <ele>2161.781757</ele>
        <time>2010-08-08T14:13:49Z</time>
      </trkpt>
      <trkpt lat="45.40512" lon="6.59772">
        <ele>2159.660857</ele>
        <time>2010-08-08T14:14:09Z</time>
      </trkpt>
      <trkpt lat="45.40515" lon="6.59756">
        <ele>2155.110334</ele>
        <time>2010-08-08T14:14:29Z</time>
      </trkpt>
      <trkpt lat="45.40528" lon="6.59734">
        <ele>2146.66192</ele>
        <time>2010-08-08T14:14:49Z</time>
      </trkpt>
      <trkpt lat="45.40539" lon="6.59701">
        <ele>2143.177109</ele>
        <time>2010-08-08T14:15:09Z</time>
      </trkpt>
      <trkpt lat="45.40543" lon="6.59664">
        <ele>2135.14859</ele>
        <time>2010-08-08T14:15:29Z</time>
      </trkpt>
      <trkpt lat="45.40527" lon="6.59641">
        <ele>2129.343743</ele>
        <time>2010-08-08T14:15:49Z</time>
      </trkpt>
      <trkpt lat="45.40512" lon="6.59617">
        <ele>2124.882529</ele>
        <time>2010-08-08T14:16:09Z</time>
      </trkpt>
      <trkpt lat="45.40496" lon="6.5961">
        <ele>2118.03398</ele>
        <time>2010-08-08T14:16:29Z</time>
      </trkpt>
      <trkpt lat="45.40469" lon="6.59604">
        <ele>2113.953449</ele>
        <time>2010-08-08T14:16:49Z</time>
      </trkpt>
      <trkpt lat="45.40445" lon="6.59597">
        <ele>2113.433467</ele>
        <time>2010-08-08T14:17:09Z</time>
      </trkpt>
      <trkpt lat="45.40431" lon="6.59592">
        <ele>2110.908996</ele>
        <time>2010-08-08T14:17:29Z</time>
      </trkpt>
      <trkpt lat="45.40418" lon="6.59589">
        <ele>2108.560487</ele>
        <time>2010-08-08T14:17:49Z</time>
      </trkpt>
      <trkpt lat="45.40395" lon="6.59579">
        <ele>2102.872762</ele>
        <time>2010-08-08T14:18:09Z</time>
      </trkpt>
      <trkpt lat="45.4037" lon="6.5957">
        <ele>2095.761006</ele>
        <time>2010-08-08T14:18:29Z</time>
      </trkpt>
      <trkpt lat="45.4035" lon="6.59548">
        <ele>2085.765151</ele>
        <time>2010-08-08T14:18:49Z</time>
      </trkpt>
      <trkpt lat="45.40324" lon="6.59532">
        <ele>2081.120929</ele>
        <time>2010-08-08T14:19:09Z</time>
      </trkpt>
      <trkpt lat="45.40313" lon="6.59509">
        <ele>2074.597356</ele>
        <time>2010-08-08T14:19:29Z</time>
      </trkpt>
      <trkpt lat="45.40295" lon="6.59483">
        <ele>2067.208195</ele>
        <time>2010-08-08T14:19:49Z</time>
      </trkpt>
      <trkpt lat="45.40273" lon="6.59465">
        <ele>2064.568432</ele>
        <time>2010-08-08T14:20:09Z</time>
      </trkpt>
      <trkpt lat="45.4025" lon="6.59452">
        <ele>2061.539267</ele>
        <time>2010-08-08T14:20:29Z</time>
      </trkpt>
      <trkpt lat="45.40225" lon="6.59442">
        <ele>2050.104504</ele>
        <time>2010-08-08T14:20:49Z</time>
      </trkpt>
      <trkpt lat="45.40221" lon="6.5943">
        <ele>2045.091926</ele>
        <time>2010-08-08T14:21:09Z</time>
      </trkpt>
      <trkpt lat="45.40202" lon="6.59413">
        <ele>2041.784223</ele>
        <time>2010-08-08T14:21:29Z</time>
      </trkpt>
      <trkpt lat="45.40177" lon="6.59401">
        <ele>2032.390694</ele>
        <time>2010-08-08T14:21:49Z</time>
      </trkpt>
      <trkpt lat="45.40157" lon="6.59377">
        <ele>2027.953467</ele>
        <time>2010-08-08T14:22:09Z</time>
      </trkpt>
      <trkpt lat="45.40141" lon="6.59358">
        <ele>2023.816451</ele>
        <time>2010-08-08T14:22:29Z</time>
      </trkpt>
      <trkpt lat="45.40123" lon="6.59331">
        <ele>2014.226052</ele>
        <time>2010-08-08T14:22:49Z</time>
      </trkpt>
      <trkpt lat="45.40106" lon="6.59313">
        <ele>2006.624188</ele>
        <time>2010-08-08T14:23:09Z</time>
      </trkpt>
      <trkpt lat="45.40082" lon="6.59299">
        <ele>1999.272191</ele>
        <time>2010-08-08T14:23:29Z</time>
      </trkpt>
      <trkpt lat="45.4006" lon="6.59279">
        <ele>2005.010247</ele>
        <time>2010-08-08T14:23:49Z</time>
      </trkpt>
      <trkpt lat="45.40041" lon="6.59271">
        <ele>2002.979704</ele>
        <time>2010-08-08T14:24:09Z</time>
      </trkpt>
      <trkpt lat="45.40018" lon="6.5926">
        <ele>1994.394274</ele>
        <time>2010-08-08T14:24:29Z</time>
      </trkpt>
      <trkpt lat="45.39995" lon="6.59247">
        <ele>1994.185561</ele>
        <time>2010-08-08T14:24:49Z</time>
      </trkpt>
      <trkpt lat="45.39976" lon="6.59239">
        <ele>1989.321696</ele>
        <time>2010-08-08T14:25:09Z</time>
      </trkpt>
      <trkpt lat="45.39952" lon="6.59223">
        <ele>1983.21872</ele>
        <time>2010-08-08T14:25:29Z</time>
      </trkpt>
      <trkpt lat="45.39928" lon="6.59209">
        <ele>1980.808187</ele>
        <time>2010-08-08T14:25:49Z</time>
      </trkpt>
      <trkpt lat="45.39905" lon="6.592">
        <ele>1974.491598</ele>
        <time>2010-08-08T14:26:09Z</time>
      </trkpt>
      <trkpt lat="45.39882" lon="6.59192">
        <ele>1973.908364</ele>
        <time>2010-08-08T14:26:29Z</time>
      </trkpt>
      <trkpt lat="45.39865" lon="6.59173">
        <ele>1967.636486</ele>
        <time>2010-08-08T14:26:49Z</time>
      </trkpt>
      <trkpt lat="45.39854" lon="6.59141">
        <ele>1963.450149</ele>
        <time>2010-08-08T14:27:09Z</time>
      </trkpt>
      <trkpt lat="45.39852" lon="6.59106">
        <ele>1961.928075</ele>
        <time>2010-08-08T14:27:29Z</time>
      </trkpt>
      <trkpt lat="45.39846" lon="6.59071">
        <ele>1959.665159</ele>
        <time>2010-08-08T14:27:49Z</time>
      </trkpt>
      <trkpt lat="45.39837" lon="6.59041">
        <ele>1952.755151</ele>
        <time>2010-08-08T14:28:09Z</time>
      </trkpt>
      <trkpt lat="45.39822" lon="6.59013">
        <ele>1951.572226</ele>
        <time>2010-08-08T14:28:29Z</time>
      </trkpt>
      <trkpt lat="45.39813" lon="6.58989">
        <ele>1951.415505</ele>
        <time>2010-08-08T14:28:49Z</time>
      </trkpt>
      <trkpt lat="45.39798" lon="6.58963">
        <ele>1948.99888</ele>
        <time>2010-08-08T14:29:09Z</time>
      </trkpt>
      <trkpt lat="45.39787" lon="6.58933">
        <ele>1946.369548</ele>
        <time>2010-08-08T14:29:29Z</time>
      </trkpt>
      <trkpt lat="45.3979" lon="6.58901">
        <ele>1941.469986</ele>
        <time>2010-08-08T14:29:49Z</time>
      </trkpt>
      <trkpt lat="45.39796" lon="6.58884">
        <ele>1937.580743</ele>
        <time>2010-08-08T14:30:09Z</time>
      </trkpt>
      <trkpt lat="45.39789" lon="6.58876">
        <ele>1936.313022</ele>
        <time>2010-08-08T14:30:29Z</time>
      </trkpt>
      <trkpt lat="45.39776" lon="6.58839">
        <ele>1937.480842</ele>
        <time>2010-08-08T14:30:49Z</time>
      </trkpt>
      <trkpt lat="45.39754" lon="6.58814">
        <ele>1941.48928</ele>
        <time>2010-08-08T14:31:09Z</time>
      </trkpt>
      <trkpt lat="45.3973" lon="6.588">
        <ele>1949.725104</ele>
        <time>2010-08-08T14:31:29Z</time>
      </trkpt>
      <trkpt lat="45.39711" lon="6.58777">
        <ele>1948.124531</ele>
        <time>2010-08-08T14:31:49Z</time>
      </trkpt>
      <trkpt lat="45.3969" lon="6.58753">
        <ele>1951.516391</ele>
        <time>2010-08-08T14:32:09Z</time>
      </trkpt>
      <trkpt lat="45.39667" lon="6.58735">
        <ele>1955.216177</ele>
        <time>2010-08-08T14:32:29Z</time>
      </trkpt>
      <trkpt lat="45.39669" lon="6.58702">
        <ele>1949.590749</ele>
        <time>2010-08-08T14:32:49Z</time>
      </trkpt>
      <trkpt lat="45.39672" lon="6.58666">
        <ele>1945.859743</ele>
        <time>2010-08-08T14:33:09Z</time>
      </trkpt>
      <trkpt lat="45.39674" lon="6.58628">
        <ele>1940.624354</ele>
        <time>2010-08-08T14:33:29Z</time>
      </trkpt>
      <trkpt lat="45.39685" lon="6.58595">
        <ele>1935.731711</ele>
        <time>2010-08-08T14:33:49Z</time>
      </trkpt>
      <trkpt lat="45.397" lon="6.58566">
        <ele>1937.474263</ele>
        <time>2010-08-08T14:34:09Z</time>
      </trkpt>
      <trkpt lat="45.39714" lon="6.58538">
        <ele>1932.235303</ele>
        <time>2010-08-08T14:34:29Z</time>
      </trkpt>
      <trkpt lat="45.39728" lon="6.58508">
        <ele>1930.366487</ele>
        <time>2010-08-08T14:34:49Z</time>
      </trkpt>
      <trkpt lat="45.39743" lon="6.5848">
        <ele>1930.780384</ele>
        <time>2010-08-08T14:35:09Z</time>
      </trkpt>
      <trkpt lat="45.39744" lon="6.58446">
        <ele>1927.182356</ele>
        <time>2010-08-08T14:35:29Z</time>
      </trkpt>
      <trkpt lat="45.3973" lon="6.58418">
        <ele>1923.908687</ele>
        <time>2010-08-08T14:35:49Z</time>
      </trkpt>
      <trkpt lat="45.39721" lon="6.58406">
        <ele>1921.739532</ele>
        <time>2010-08-08T14:36:09Z</time>
      </trkpt>
      <trkpt lat="45.39701" lon="6.58377">
        <ele>1907.036979</ele>
        <time>2010-08-08T14:36:29Z</time>
      </trkpt>
      <trkpt lat="45.39687" lon="6.58361">
        <ele>1900.97152</ele>
        <time>2010-08-08T14:36:49Z</time>
      </trkpt>
      <trkpt lat="45.39666" lon="6.58338">
        <ele>1895.195129</ele>
        <time>2010-08-08T14:37:09Z</time>
      </trkpt>
      <trkpt lat="45.39654" lon="6.58317">
        <ele>1902.300659</ele>
        <time>2010-08-08T14:37:29Z</time>
      </trkpt>
      <trkpt lat="45.39648" lon="6.58303">
        <ele>1903.530662</ele>
        <time>2010-08-08T14:37:49Z</time>
      </trkpt>
      <trkpt lat="45.39632" lon="6.58267">
        <ele>1898.336271</ele>
        <time>2010-08-08T14:38:09Z</time>
      </trkpt>
      <trkpt lat="45.39636" lon="6.58237">
        <ele>1895.721213</ele>
        <time>2010-08-08T14:38:29Z</time>
      </trkpt>
      <trkpt lat="45.39654" lon="6.58213">
        <ele>1887.882489</ele>
        <time>2010-08-08T14:38:49Z</time>
      </trkpt>
      <trkpt lat="45.39663" lon="6.58183">
        <ele>1881.016134</ele>
        <time>2010-08-08T14:39:09Z</time>
      </trkpt>
      <trkpt lat="45.39651" lon="6.58157">
        <ele>1877.918775</ele>
        <time>2010-08-08T14:39:29Z</time>
      </trkpt>
      <trkpt lat="45.39622" lon="6.58154">
        <ele>1879.708848</ele>
        <time>2010-08-08T14:39:49Z</time>
      </trkpt>
      <trkpt lat="45.39599" lon="6.58153">
        <ele>1875.998962</ele>
        <time>2010-08-08T14:40:09Z</time>
      </trkpt>
      <trkpt lat="45.39569" lon="6.58147">
        <ele>1877.613962</ele>
        <time>2010-08-08T14:40:29Z</time>
      </trkpt>
      <trkpt lat="45.39543" lon="6.58132">
        <ele>1877.996947</ele>
        <time>2010-08-08T14:40:49Z</time>
      </trkpt>
      <trkpt lat="45.39517" lon="6.58116">
        <ele>1879.709155</ele>
        <time>2010-08-08T14:41:09Z</time>
      </trkpt>
      <trkpt lat="45.39491" lon="6.58109">
        <ele>1881.287288</ele>
        <time>2010-08-08T14:41:29Z</time>
      </trkpt>
      <trkpt lat="45.39465" lon="6.58104">
        <ele>1883.026516</ele>
        <time>2010-08-08T14:41:49Z</time>
      </trkpt>
      <trkpt lat="45.39439" lon="6.58102">
        <ele>1885.624431</ele>
        <time>2010-08-08T14:42:09Z</time>
      </trkpt>
      <trkpt lat="45.39411" lon="6.58095">
        <ele>1883.657551</ele>
        <time>2010-08-08T14:42:29Z</time>
      </trkpt>
      <trkpt lat="45.39385" lon="6.58098">
        <ele>1880.161378</ele>
        <time>2010-08-08T14:42:49Z</time>
      </trkpt>
      <trkpt lat="45.39357" lon="6.58112">
        <ele>1886.62508</ele>
        <time>2010-08-08T14:43:09Z</time>
      </trkpt>
      <trkpt lat="45.39333" lon="6.58127">
        <ele>1886.781804</ele>
        <time>2010-08-08T14:43:29Z</time>
      </trkpt>
      <trkpt lat="45.3931" lon="6.58144">
        <ele>1886.335873</ele>
        <time>2010-08-08T14:43:49Z</time>
      </trkpt>
      <trkpt lat="45.39285" lon="6.58148">
        <ele>1887.244184</ele>
        <time>2010-08-08T14:44:09Z</time>
      </trkpt>
      <trkpt lat="45.39259" lon="6.58143">
        <ele>1887.494393</ele>
        <time>2010-08-08T14:44:29Z</time>
      </trkpt>
      <trkpt lat="45.39233" lon="6.58137">
        <ele>1891.973391</ele>
        <time>2010-08-08T14:44:49Z</time>
      </trkpt>
      <trkpt lat="45.39204" lon="6.58133">
        <ele>1890.946678</ele>
        <time>2010-08-08T14:45:09Z</time>
      </trkpt>
      <trkpt lat="45.39194" lon="6.58126">
        <ele>1885.48923</ele>
        <time>2010-08-08T14:45:29Z</time>
      </trkpt>
      <trkpt lat="45.39177" lon="6.58102">
        <ele>1888.847063</ele>
        <time>2010-08-08T14:45:49Z</time>
      </trkpt>
      <trkpt lat="45.39159" lon="6.58073">
        <ele>1889.761609</ele>
        <time>2010-08-08T14:46:09Z</time>
      </trkpt>
      <trkpt lat="45.39145" lon="6.58042">
        <ele>1890.543918</ele>
        <time>2010-08-08T14:46:29Z</time>
      </trkpt>
      <trkpt lat="45.39123" lon="6.58013">
        <ele>1891.496366</ele>
        <time>2010-08-08T14:46:49Z</time>
      </trkpt>
      <trkpt lat="45.39098" lon="6.57995">
        <ele>1895.171391</ele>
        <time>2010-08-08T14:47:09Z</time>
      </trkpt>
      <trkpt lat="45.39071" lon="6.57994">
        <ele>1895.032594</ele>
        <time>2010-08-08T14:47:29Z</time>
      </trkpt>
      <trkpt lat="45.3905" lon="6.58006">
        <ele>1897.796719</ele>
        <time>2010-08-08T14:47:49Z</time>
      </trkpt>
      <trkpt lat="45.3902" lon="6.5802">
        <ele>1897.897714</ele>
        <time>2010-08-08T14:48:09Z</time>
      </trkpt>
      <trkpt lat="45.38996" lon="6.58031">
        <ele>1899.224024</ele>
        <time>2010-08-08T14:48:29Z</time>
      </trkpt>
      <trkpt lat="45.38968" lon="6.58045">
        <ele>1899.971029</ele>
        <time>2010-08-08T14:48:49Z</time>
      </trkpt>
      <trkpt lat="45.38942" lon="6.58053">
        <ele>1899.698613</ele>
        <time>2010-08-08T14:49:09Z</time>
      </trkpt>
      <trkpt lat="45.38917" lon="6.58061">
        <ele>1902.971576</ele>
        <time>2010-08-08T14:49:29Z</time>
      </trkpt>
      <trkpt lat="45.38893" lon="6.5807">
        <ele>1901.318341</ele>
        <time>2010-08-08T14:49:49Z</time>
      </trkpt>
      <trkpt lat="45.38865" lon="6.58076">
        <ele>1902.280699</ele>
        <time>2010-08-08T14:50:09Z</time>
      </trkpt>
      <trkpt lat="45.38839" lon="6.58073">
        <ele>1905.513129</ele>
        <time>2010-08-08T14:50:29Z</time>
      </trkpt>
      <trkpt lat="45.38814" lon="6.58068">
        <ele>1917.914894</ele>
        <time>2010-08-08T14:50:49Z</time>
      </trkpt>
      <trkpt lat="45.38783" lon="6.58066">
        <ele>1911.935785</ele>
        <time>2010-08-08T14:51:09Z</time>
      </trkpt>
      <trkpt lat="45.38756" lon="6.58065">
        <ele>1913.208174</ele>
        <time>2010-08-08T14:51:29Z</time>
      </trkpt>
      <trkpt lat="45.3873" lon="6.58062">
        <ele>1918.628879</ele>
        <time>2010-08-08T14:51:49Z</time>
      </trkpt>
      <trkpt lat="45.38712" lon="6.5807">
        <ele>1924.014711</ele>
        <time>2010-08-08T14:52:09Z</time>
      </trkpt>
      <trkpt lat="45.38683" lon="6.58101">
        <ele>1915.94278</ele>
        <time>2010-08-08T14:52:29Z</time>
      </trkpt>
      <trkpt lat="45.38678" lon="6.58124">
        <ele>1908.179935</ele>
        <time>2010-08-08T14:52:49Z</time>
      </trkpt>
      <trkpt lat="45.38663" lon="6.58157">
        <ele>1910.211592</ele>
        <time>2010-08-08T14:53:09Z</time>
      </trkpt>
      <trkpt lat="45.38643" lon="6.5818">
        <ele>1913.018594</ele>
        <time>2010-08-08T14:53:29Z</time>
      </trkpt>
      <trkpt lat="45.38621" lon="6.58174">
        <ele>1909.005332</ele>
        <time>2010-08-08T14:53:49Z</time>
      </trkpt>
      <trkpt lat="45.38594" lon="6.58171">
        <ele>1911.52711</ele>
        <time>2010-08-08T14:54:09Z</time>
      </trkpt>
      <trkpt lat="45.38568" lon="6.5818">
        <ele>1914.86819</ele>
        <time>2010-08-08T14:54:29Z</time>
      </trkpt>
      <trkpt lat="45.38543" lon="6.58187">
        <ele>1918.062546</ele>
        <time>2010-08-08T14:54:49Z</time>
      </trkpt>
      <trkpt lat="45.3852" lon="6.58196">
        <ele>1918.532563</ele>
        <time>2010-08-08T14:55:09Z</time>
      </trkpt>
      <trkpt lat="45.38495" lon="6.58219">
        <ele>1916.357328</ele>
        <time>2010-08-08T14:55:29Z</time>
      </trkpt>
      <trkpt lat="45.38472" lon="6.58241">
        <ele>1917.646821</ele>
        <time>2010-08-08T14:55:49Z</time>
      </trkpt>
      <trkpt lat="45.38452" lon="6.5826">
        <ele>1918.10596</ele>
        <time>2010-08-08T14:56:09Z</time>
      </trkpt>
      <trkpt lat="45.3843" lon="6.5828">
        <ele>1921.436595</ele>
        <time>2010-08-08T14:56:29Z</time>
      </trkpt>
      <trkpt lat="45.38404" lon="6.58294">
        <ele>1920.791508</ele>
        <time>2010-08-08T14:56:49Z</time>
      </trkpt>
      <trkpt lat="45.38379" lon="6.58306">
        <ele>1923.611084</ele>
        <time>2010-08-08T14:57:09Z</time>
      </trkpt>
      <trkpt lat="45.38354" lon="6.58321">
        <ele>1923.758636</ele>
        <time>2010-08-08T14:57:29Z</time>
      </trkpt>
      <trkpt lat="45.38334" lon="6.58346">
        <ele>1923.842751</ele>
        <time>2010-08-08T14:57:49Z</time>
      </trkpt>
      <trkpt lat="45.3833" lon="6.58383">
        <ele>1923.330778</ele>
        <time>2010-08-08T14:58:09Z</time>
      </trkpt>
      <trkpt lat="45.38328" lon="6.58419">
        <ele>1920.659314</ele>
        <time>2010-08-08T14:58:29Z</time>
      </trkpt>
      <trkpt lat="45.38327" lon="6.58456">
        <ele>1922.297159</ele>
        <time>2010-08-08T14:58:49Z</time>
      </trkpt>
      <trkpt lat="45.3831" lon="6.58488">
        <ele>1927.121775</ele>
        <time>2010-08-08T14:59:09Z</time>
      </trkpt>
      <trkpt lat="45.38295" lon="6.58522">
        <ele>1928.538441</ele>
        <time>2010-08-08T14:59:29Z</time>
      </trkpt>
      <trkpt lat="45.38292" lon="6.58558">
        <ele>1926.551113</ele>
        <time>2010-08-08T14:59:49Z</time>
      </trkpt>
      <trkpt lat="45.38287" lon="6.58596">
        <ele>1928.227761</ele>
        <time>2010-08-08T15:00:09Z</time>
      </trkpt>
      <trkpt lat="45.38281" lon="6.58633">
        <ele>1929.904551</ele>
        <time>2010-08-08T15:00:29Z</time>
      </trkpt>
      <trkpt lat="45.38275" lon="6.58658">
        <ele>1930.049931</ele>
        <time>2010-08-08T15:00:49Z</time>
      </trkpt>
      <trkpt lat="45.38268" lon="6.58698">
        <ele>1927.564813</ele>
        <time>2010-08-08T15:01:09Z</time>
      </trkpt>
      <trkpt lat="45.38252" lon="6.58726">
        <ele>1930.753185</ele>
        <time>2010-08-08T15:01:29Z</time>
      </trkpt>
      <trkpt lat="45.38222" lon="6.58718">
        <ele>1937.221387</ele>
        <time>2010-08-08T15:01:49Z</time>
      </trkpt>
      <trkpt lat="45.38195" lon="6.58715">
        <ele>1940.442788</ele>
        <time>2010-08-08T15:02:09Z</time>
      </trkpt>
      <trkpt lat="45.38172" lon="6.5872">
        <ele>1943.492204</ele>
        <time>2010-08-08T15:02:29Z</time>
      </trkpt>
      <trkpt lat="45.38161" lon="6.58712">
        <ele>1938.734185</ele>
        <time>2010-08-08T15:02:49Z</time>
      </trkpt>
      <trkpt lat="45.38133" lon="6.58689">
        <ele>1934.302741</ele>
        <time>2010-08-08T15:03:09Z</time>
      </trkpt>
      <trkpt lat="45.38105" lon="6.58688">
        <ele>1936.276221</ele>
        <time>2010-08-08T15:03:29Z</time>
      </trkpt>
      <trkpt lat="45.38076" lon="6.58689">
        <ele>1941.216045</ele>
        <time>2010-08-08T15:03:49Z</time>
      </trkpt>
      <trkpt lat="45.38048" lon="6.58685">
        <ele>1947.243289</ele>
        <time>2010-08-08T15:04:09Z</time>
      </trkpt>
      <trkpt lat="45.38023" lon="6.58677">
        <ele>1947.352292</ele>
        <time>2010-08-08T15:04:29Z</time>
      </trkpt>
      <trkpt lat="45.38001" lon="6.58659">
        <ele>1946.830878</ele>
        <time>2010-08-08T15:04:49Z</time>
      </trkpt>
      <trkpt lat="45.37984" lon="6.5864">
        <ele>1941.975866</ele>
        <time>2010-08-08T15:05:09Z</time>
      </trkpt>
      <trkpt lat="45.37956" lon="6.58633">
        <ele>1936.499579</ele>
        <time>2010-08-08T15:05:29Z</time>
      </trkpt>
      <trkpt lat="45.37928" lon="6.58629">
        <ele>1932.580118</ele>
        <time>2010-08-08T15:05:49Z</time>
      </trkpt>
      <trkpt lat="45.37898" lon="6.58625">
        <ele>1928.646825</ele>
        <time>2010-08-08T15:06:09Z</time>
      </trkpt>
      <trkpt lat="45.37874" lon="6.58622">
        <ele>1926.259753</ele>
        <time>2010-08-08T15:06:29Z</time>
      </trkpt>
      <trkpt lat="45.37848" lon="6.58614">
        <ele>1919.227353</ele>
        <time>2010-08-08T15:06:49Z</time>
      </trkpt>
      <trkpt lat="45.37822" lon="6.5862">
        <ele>1918.102274</ele>
        <time>2010-08-08T15:07:09Z</time>
      </trkpt>
      <trkpt lat="45.37808" lon="6.58603">
        <ele>1911.329664</ele>
        <time>2010-08-08T15:07:29Z</time>
      </trkpt>
      <trkpt lat="45.37798" lon="6.58593">
        <ele>1899.297044</ele>
        <time>2010-08-08T15:07:49Z</time>
      </trkpt>
      <trkpt lat="45.37773" lon="6.58593">
        <ele>1897.071586</ele>
        <time>2010-08-08T15:08:09Z</time>
      </trkpt>
      <trkpt lat="45.37749" lon="6.58605">
        <ele>1894.873536</ele>
        <time>2010-08-08T15:08:29Z</time>
      </trkpt>
      <trkpt lat="45.37719" lon="6.5861">
        <ele>1897.935752</ele>
        <time>2010-08-08T15:08:49Z</time>
      </trkpt>
      <trkpt lat="45.37701" lon="6.58619">
        <ele>1889.229994</ele>
        <time>2010-08-08T15:09:09Z</time>
      </trkpt>
      <trkpt lat="45.37679" lon="6.58654">
        <ele>1884.295772</ele>
        <time>2010-08-08T15:09:29Z</time>
      </trkpt>
      <trkpt lat="45.37658" lon="6.58675">
        <ele>1884.82535</ele>
        <time>2010-08-08T15:09:49Z</time>
      </trkpt>
      <trkpt lat="45.37634" lon="6.58648">
        <ele>1895.782359</ele>
        <time>2010-08-08T15:10:09Z</time>
      </trkpt>
      <trkpt lat="45.3761" lon="6.58625">
        <ele>1902.054806</ele>
        <time>2010-08-08T15:10:29Z</time>
      </trkpt>
      <trkpt lat="45.37589" lon="6.58615">
        <ele>1891.387405</ele>
        <time>2010-08-08T15:10:49Z</time>
      </trkpt>
      <trkpt lat="45.37577" lon="6.58621">
        <ele>1886.107421</ele>
        <time>2010-08-08T15:11:09Z</time>
      </trkpt>
      <trkpt lat="45.37568" lon="6.58614">
        <ele>1885.593291</ele>
        <time>2010-08-08T15:11:29Z</time>
      </trkpt>
      <trkpt lat="45.37537" lon="6.58596">
        <ele>1877.231112</ele>
        <time>2010-08-08T15:11:49Z</time>
      </trkpt>
      <trkpt lat="45.37515" lon="6.58594">
        <ele>1872.766198</ele>
        <time>2010-08-08T15:12:09Z</time>
      </trkpt>
      <trkpt lat="45.37518" lon="6.58597">
        <ele>1865.90739</ele>
        <time>2010-08-08T15:12:29Z</time>
      </trkpt>
      <trkpt lat="45.37515" lon="6.58599">
        <ele>1870.269376</ele>
        <time>2010-08-08T15:13:15Z</time>
      </trkpt>
      <trkpt lat="45.3751" lon="6.58601">
        <ele>1869.677106</ele>
        <time>2010-08-08T15:13:59Z</time>
      </trkpt>
      <trkpt lat="45.3748" lon="6.58598">
        <ele>1877.881578</ele>
        <time>2010-08-08T15:14:19Z</time>
      </trkpt>
      <trkpt lat="45.3746" lon="6.58577">
        <ele>1889.217408</ele>
        <time>2010-08-08T15:14:39Z</time>
      </trkpt>
      <trkpt lat="45.37438" lon="6.58573">
        <ele>1895.317485</ele>
        <time>2010-08-08T15:14:59Z</time>
      </trkpt>
      <trkpt lat="45.37415" lon="6.58583">
        <ele>1888.745125</ele>
        <time>2010-08-08T15:15:19Z</time>
      </trkpt>
      <trkpt lat="45.37412" lon="6.58573">
        <ele>1868.244743</ele>
        <time>2010-08-08T15:15:39Z</time>
      </trkpt>
      <trkpt lat="45.37385" lon="6.58559">
        <ele>1858.757301</ele>
        <time>2010-08-08T15:15:59Z</time>
      </trkpt>
      <trkpt lat="45.37358" lon="6.5855">
        <ele>1855.942171</ele>
        <time>2010-08-08T15:16:19Z</time>
      </trkpt>
      <trkpt lat="45.37349" lon="6.58546">
        <ele>1847.146203</ele>
        <time>2010-08-08T15:16:39Z</time>
      </trkpt>
      <trkpt lat="45.37363" lon="6.5852">
        <ele>1843.391134</ele>
        <time>2010-08-08T15:16:59Z</time>
      </trkpt>
      <trkpt lat="45.37381" lon="6.58493">
        <ele>1841.718446</ele>
        <time>2010-08-08T15:17:19Z</time>
      </trkpt>
      <trkpt lat="45.37411" lon="6.58483">
        <ele>1836.22473</ele>
        <time>2010-08-08T15:17:39Z</time>
      </trkpt>
      <trkpt lat="45.37427" lon="6.58461">
        <ele>1827.79903</ele>
        <time>2010-08-08T15:17:59Z</time>
      </trkpt>
      <trkpt lat="45.37454" lon="6.58436">
        <ele>1817.766566</ele>
        <time>2010-08-08T15:18:19Z</time>
      </trkpt>
      <trkpt lat="45.3743" lon="6.58414">
        <ele>1811.354352</ele>
        <time>2010-08-08T15:18:39Z</time>
      </trkpt>
      <trkpt lat="45.37408" lon="6.58397">
        <ele>1806.60734</ele>
        <time>2010-08-08T15:18:59Z</time>
      </trkpt>
      <trkpt lat="45.37396" lon="6.58363">
        <ele>1795.903403</ele>
        <time>2010-08-08T15:19:19Z</time>
      </trkpt>
      <trkpt lat="45.37398" lon="6.5835">
        <ele>1802.159616</ele>
        <time>2010-08-08T15:19:39Z</time>
      </trkpt>
      <trkpt lat="45.37412" lon="6.58332">
        <ele>1798.982796</ele>
        <time>2010-08-08T15:19:59Z</time>
      </trkpt>
      <trkpt lat="45.37408" lon="6.58314">
        <ele>1789.959825</ele>
        <time>2010-08-08T15:20:19Z</time>
      </trkpt>
      <trkpt lat="45.37389" lon="6.58288">
        <ele>1776.233625</ele>
        <time>2010-08-08T15:20:39Z</time>
      </trkpt>
      <trkpt lat="45.37365" lon="6.58275">
        <ele>1766.774384</ele>
        <time>2010-08-08T15:20:59Z</time>
      </trkpt>
      <trkpt lat="45.37362" lon="6.5826">
        <ele>1770.075648</ele>
        <time>2010-08-08T15:21:19Z</time>
      </trkpt>
      <trkpt lat="45.37368" lon="6.58235">
        <ele>1761.392223</ele>
        <time>2010-08-08T15:21:44Z</time>
      </trkpt>
      <trkpt lat="45.37357" lon="6.58214">
        <ele>1750.810131</ele>
        <time>2010-08-08T15:22:04Z</time>
      </trkpt>
      <trkpt lat="45.3734" lon="6.58201">
        <ele>1747.072428</ele>
        <time>2010-08-08T15:22:24Z</time>
      </trkpt>
      <trkpt lat="45.37321" lon="6.58185">
        <ele>1740.326965</ele>
        <time>2010-08-08T15:22:44Z</time>
      </trkpt>
      <trkpt lat="45.37288" lon="6.58173">
        <ele>1734.463182</ele>
        <time>2010-08-08T15:23:04Z</time>
      </trkpt>
      <trkpt lat="45.37262" lon="6.5816">
        <ele>1739.959011</ele>
        <time>2010-08-08T15:23:24Z</time>
      </trkpt>
      <trkpt lat="45.37235" lon="6.58142">
        <ele>1742.205649</ele>
        <time>2010-08-08T15:23:44Z</time>
      </trkpt>
      <trkpt lat="45.37212" lon="6.58121">
        <ele>1741.527587</ele>
        <time>2010-08-08T15:24:04Z</time>
      </trkpt>
      <trkpt lat="45.37189" lon="6.58107">
        <ele>1742.661781</ele>
        <time>2010-08-08T15:24:24Z</time>
      </trkpt>
      <trkpt lat="45.37182" lon="6.58107">
        <ele>1746.888111</ele>
        <time>2010-08-08T15:24:44Z</time>
      </trkpt>
      <trkpt lat="45.37193" lon="6.58103">
        <ele>1749.509443</ele>
        <time>2010-08-08T15:25:04Z</time>
      </trkpt>
      <trkpt lat="45.37229" lon="6.58103">
        <ele>1746.123903</ele>
        <time>2010-08-08T15:25:24Z</time>
      </trkpt>
      <trkpt lat="45.37252" lon="6.58094">
        <ele>1741.338908</ele>
        <time>2010-08-08T15:25:44Z</time>
      </trkpt>
      <trkpt lat="45.37276" lon="6.58079">
        <ele>1740.460658</ele>
        <time>2010-08-08T15:26:04Z</time>
      </trkpt>
      <trkpt lat="45.37294" lon="6.58076">
        <ele>1750.279662</ele>
        <time>2010-08-08T15:26:24Z</time>
      </trkpt>
      <trkpt lat="45.37308" lon="6.58075">
        <ele>1753.089948</ele>
        <time>2010-08-08T15:26:44Z</time>
      </trkpt>
      <trkpt lat="45.37313" lon="6.58084">
        <ele>1753.010998</ele>
        <time>2010-08-08T15:27:04Z</time>
      </trkpt>
      <trkpt lat="45.37314" lon="6.58095">
        <ele>1752.971052</ele>
        <time>2010-08-08T15:27:24Z</time>
      </trkpt>
      <trkpt lat="45.37318" lon="6.58101">
        <ele>1752.005567</ele>
        <time>2010-08-08T15:27:44Z</time>
      </trkpt>
      <trkpt lat="45.37318" lon="6.58108">
        <ele>1753.119819</ele>
        <time>2010-08-08T15:28:04Z</time>
      </trkpt>
    </trkseg>
  </trk>
</gpx>